SPMPV EPKK-EPKK
Flight info
| Callsign | SPMPV |
|---|---|
| Flight time | 1h 12m |
| Altitude | 2000 |
| Route | DCT EPKK DCT EPKKK DCT EPKKS DCT EPKPP DCT EPKP DCT EPKPP EPKKS DCT EPKKK DCT EPKK DCT |
| Aircraft | C172/L-SDGRY/S |
Departure
| Time | 2026-05-01 08:29 |
|---|---|
| Airport | Kraków John Paul II International Airport (EPKK) |
Arrival
| Time | 2026-05-01 09:42 |
|---|---|
| Airport | Kraków John Paul II International Airport (EPKK) |
| Time | Latitude | Longitude | Altitude | Speed | Heading |
|---|---|---|---|---|---|
| 2026-05-01 08:16 | 50.07704 | 19.80161 | 785 ft | 0 kts | 348° |
| 2026-05-01 08:26 | 50.07707 | 19.80160 | 785 ft | 2 kts | 346° |
| 2026-05-01 08:26 | 50.07744 | 19.80154 | 785 ft | 7 kts | 19° |
| 2026-05-01 08:26 | 50.07761 | 19.80217 | 786 ft | 6 kts | 76° |
| 2026-05-01 08:27 | 50.07771 | 19.80284 | 786 ft | 7 kts | 78° |
| 2026-05-01 08:27 | 50.07804 | 19.80347 | 786 ft | 10 kts | 2° |
| 2026-05-01 08:27 | 50.07878 | 19.80324 | 786 ft | 11 kts | 348° |
| 2026-05-01 08:27 | 50.07952 | 19.80299 | 785 ft | 11 kts | 347° |
| 2026-05-01 08:28 | 50.08010 | 19.80240 | 785 ft | 10 kts | 288° |
| 2026-05-01 08:28 | 50.08005 | 19.80138 | 785 ft | 13 kts | 259° |
| 2026-05-01 08:28 | 50.07966 | 19.79854 | 784 ft | 48 kts | 257° |
| 2026-05-01 08:28 | 50.07867 | 19.79150 | 844 ft | 76 kts | 256° |
| 2026-05-01 08:29 | 50.07754 | 19.78355 | 1100 ft | 75 kts | 257° |
| 2026-05-01 08:29 | 50.07661 | 19.77554 | 1341 ft | 76 kts | 260° |
| 2026-05-01 08:29 | 50.07577 | 19.76773 | 1610 ft | 73 kts | 255° |
| 2026-05-01 08:29 | 50.07139 | 19.76349 | 1818 ft | 84 kts | 179° |
| 2026-05-01 08:30 | 50.06574 | 19.76589 | 1966 ft | 87 kts | 170° |
| 2026-05-01 08:30 | 50.05974 | 19.76875 | 1976 ft | 95 kts | 163° |
| 2026-05-01 08:30 | 50.05622 | 19.77720 | 1971 ft | 104 kts | 84° |
| 2026-05-01 08:30 | 50.05744 | 19.78870 | 1962 ft | 109 kts | 79° |
| 2026-05-01 08:31 | 50.05860 | 19.80040 | 1995 ft | 109 kts | 81° |
| 2026-05-01 08:31 | 50.05991 | 19.81208 | 1976 ft | 111 kts | 77° |
| 2026-05-01 08:31 | 50.06135 | 19.82346 | 1986 ft | 105 kts | 79° |
| 2026-05-01 08:31 | 50.06267 | 19.83449 | 1993 ft | 100 kts | 78° |
| 2026-05-01 08:32 | 50.06450 | 19.84435 | 1923 ft | 93 kts | 49° |
| 2026-05-01 08:32 | 50.07005 | 19.84766 | 1775 ft | 86 kts | 342° |
| 2026-05-01 08:32 | 50.07617 | 19.84632 | 1630 ft | 88 kts | 345° |
| 2026-05-01 08:32 | 50.08196 | 19.84403 | 1422 ft | 86 kts | 318° |
| 2026-05-01 08:33 | 50.08427 | 19.83702 | 1283 ft | 66 kts | 275° |
| 2026-05-01 08:33 | 50.08400 | 19.83006 | 1225 ft | 64 kts | 257° |
| 2026-05-01 08:33 | 50.08304 | 19.82335 | 1146 ft | 65 kts | 255° |
| 2026-05-01 08:33 | 50.08201 | 19.81634 | 1064 ft | 68 kts | 257° |
| 2026-05-01 08:34 | 50.08108 | 19.80894 | 977 ft | 71 kts | 258° |
| 2026-05-01 08:34 | 50.08007 | 19.80143 | 862 ft | 70 kts | 256° |
| 2026-05-01 08:34 | 50.07908 | 19.79427 | 796 ft | 65 kts | 255° |
| 2026-05-01 08:34 | 50.07816 | 19.78773 | 790 ft | 60 kts | 255° |
| 2026-05-01 08:35 | 50.07727 | 19.78136 | 791 ft | 62 kts | 256° |
| 2026-05-01 08:35 | 50.07630 | 19.77460 | 815 ft | 68 kts | 255° |
| 2026-05-01 08:35 | 50.07519 | 19.76712 | 1018 ft | 72 kts | 258° |
| 2026-05-01 08:35 | 50.07408 | 19.75939 | 1235 ft | 76 kts | 257° |
| 2026-05-01 08:36 | 50.07214 | 19.75198 | 1479 ft | 76 kts | 222° |
| 2026-05-01 08:36 | 50.06683 | 19.75173 | 1666 ft | 85 kts | 162° |
| 2026-05-01 08:36 | 50.06134 | 19.75495 | 1923 ft | 83 kts | 165° |
| 2026-05-01 08:36 | 50.05582 | 19.75862 | 1923 ft | 91 kts | 135° |
| 2026-05-01 08:37 | 50.05441 | 19.76812 | 1931 ft | 98 kts | 73° |
| 2026-05-01 08:37 | 50.05587 | 19.77873 | 1956 ft | 102 kts | 77° |
| 2026-05-01 08:37 | 50.05717 | 19.78973 | 1996 ft | 105 kts | 78° |
| 2026-05-01 08:37 | 50.05847 | 19.80123 | 2001 ft | 108 kts | 81° |
| 2026-05-01 08:38 | 50.05973 | 19.81260 | 2014 ft | 104 kts | 79° |
| 2026-05-01 08:38 | 50.06083 | 19.82360 | 2004 ft | 100 kts | 82° |
| 2026-05-01 08:38 | 50.06180 | 19.83429 | 1994 ft | 98 kts | 73° |
| 2026-05-01 08:38 | 50.06681 | 19.83898 | 1790 ft | 93 kts | 349° |
| 2026-05-01 08:39 | 50.07286 | 19.83799 | 1710 ft | 82 kts | 347° |
| 2026-05-01 08:39 | 50.07829 | 19.83650 | 1549 ft | 78 kts | 341° |
| 2026-05-01 08:39 | 50.08332 | 19.83396 | 1384 ft | 77 kts | 302° |
| 2026-05-01 08:39 | 50.08351 | 19.82578 | 1207 ft | 75 kts | 259° |
| 2026-05-01 08:40 | 50.08139 | 19.81046 | 982 ft | 72 kts | 255° |
| 2026-05-01 08:40 | 50.08030 | 19.80299 | 854 ft | 70 kts | 254° |
| 2026-05-01 08:40 | 50.07927 | 19.79574 | 787 ft | 62 kts | 255° |
| 2026-05-01 08:41 | 50.07833 | 19.78934 | 847 ft | 67 kts | 255° |
| 2026-05-01 08:41 | 50.07739 | 19.78194 | 1069 ft | 70 kts | 256° |
| 2026-05-01 08:41 | 50.07649 | 19.77423 | 1280 ft | 77 kts | 259° |
| 2026-05-01 08:41 | 50.07426 | 19.76699 | 1529 ft | 80 kts | 215° |
| 2026-05-01 08:42 | 50.06874 | 19.76791 | 1787 ft | 91 kts | 145° |
| 2026-05-01 08:42 | 50.06377 | 19.77445 | 1960 ft | 97 kts | 142° |
| 2026-05-01 08:42 | 50.05881 | 19.78195 | 1994 ft | 103 kts | 139° |
| 2026-05-01 08:42 | 50.05368 | 19.79000 | 2012 ft | 107 kts | 145° |
| 2026-05-01 08:43 | 50.04695 | 19.79405 | 1960 ft | 104 kts | 178° |
| 2026-05-01 08:43 | 50.03992 | 19.79692 | 2001 ft | 105 kts | 169° |
| 2026-05-01 08:43 | 50.03285 | 19.80039 | 1994 ft | 110 kts | 165° |
| 2026-05-01 08:43 | 50.02567 | 19.80444 | 1986 ft | 109 kts | 166° |
| 2026-05-01 08:44 | 50.01840 | 19.80697 | 1973 ft | 106 kts | 173° |
| 2026-05-01 08:44 | 50.01139 | 19.80967 | 2005 ft | 103 kts | 172° |
| 2026-05-01 08:44 | 50.00444 | 19.81246 | 1999 ft | 103 kts | 171° |
| 2026-05-01 08:44 | 49.99745 | 19.81498 | 2033 ft | 102 kts | 172° |
| 2026-05-01 08:45 | 49.99105 | 19.81755 | 2302 ft | 89 kts | 163° |
| 2026-05-01 08:45 | 49.98823 | 19.82571 | 2570 ft | 93 kts | 96° |
| 2026-05-01 08:45 | 49.98637 | 19.83653 | 2562 ft | 115 kts | 102° |
| 2026-05-01 08:45 | 49.98508 | 19.84908 | 2547 ft | 120 kts | 94° |
| 2026-05-01 08:46 | 49.98430 | 19.86210 | 2548 ft | 123 kts | 95° |
| 2026-05-01 08:46 | 49.98350 | 19.87522 | 2554 ft | 120 kts | 95° |
| 2026-05-01 08:46 | 49.98287 | 19.88824 | 2541 ft | 122 kts | 93° |
| 2026-05-01 08:46 | 49.98239 | 19.90114 | 2535 ft | 118 kts | 86° |
| 2026-05-01 08:47 | 49.98276 | 19.91370 | 2532 ft | 116 kts | 85° |
| 2026-05-01 08:47 | 49.98307 | 19.92611 | 2529 ft | 115 kts | 84° |
| 2026-05-01 08:47 | 49.98359 | 19.93869 | 2530 ft | 118 kts | 83° |
| 2026-05-01 08:47 | 49.98433 | 19.95142 | 2539 ft | 118 kts | 85° |
| 2026-05-01 08:48 | 49.98526 | 19.96414 | 2547 ft | 120 kts | 83° |
| 2026-05-01 08:48 | 49.98624 | 19.97721 | 2538 ft | 121 kts | 79° |
| 2026-05-01 08:48 | 49.98748 | 19.99013 | 2540 ft | 121 kts | 80° |
| 2026-05-01 08:48 | 49.98879 | 20.00280 | 2537 ft | 121 kts | 80° |
| 2026-05-01 08:49 | 49.99001 | 20.01562 | 2535 ft | 119 kts | 81° |
| 2026-05-01 08:49 | 49.99121 | 20.02841 | 2534 ft | 120 kts | 80° |
| 2026-05-01 08:49 | 49.99240 | 20.04111 | 2531 ft | 117 kts | 80° |
| 2026-05-01 08:49 | 49.99364 | 20.05366 | 2529 ft | 117 kts | 81° |
| 2026-05-01 08:50 | 49.99478 | 20.06610 | 2531 ft | 115 kts | 81° |
| 2026-05-01 08:50 | 49.99602 | 20.07857 | 2526 ft | 118 kts | 80° |
| 2026-05-01 08:50 | 49.99713 | 20.09117 | 2530 ft | 118 kts | 80° |
| 2026-05-01 08:50 | 49.99827 | 20.10371 | 2527 ft | 116 kts | 80° |
| 2026-05-01 08:51 | 49.99939 | 20.11596 | 2520 ft | 114 kts | 78° |
| 2026-05-01 08:51 | 50.00298 | 20.12636 | 2528 ft | 110 kts | 58° |
| 2026-05-01 08:51 | 50.00637 | 20.13721 | 2543 ft | 110 kts | 59° |
| 2026-05-01 08:51 | 50.00983 | 20.14780 | 2371 ft | 112 kts | 57° |
| 2026-05-01 08:52 | 50.01455 | 20.15737 | 2193 ft | 110 kts | 45° |
| 2026-05-01 08:52 | 50.01982 | 20.16570 | 2035 ft | 102 kts | 39° |
| 2026-05-01 08:52 | 50.02509 | 20.17300 | 2030 ft | 100 kts | 39° |
| 2026-05-01 08:52 | 50.03046 | 20.18070 | 2158 ft | 107 kts | 40° |
| 2026-05-01 08:53 | 50.03633 | 20.18813 | 2227 ft | 110 kts | 26° |
| 2026-05-01 08:53 | 50.04333 | 20.19203 | 2214 ft | 106 kts | 11° |
| 2026-05-01 08:53 | 50.05025 | 20.19510 | 2225 ft | 103 kts | 5° |
| 2026-05-01 08:53 | 50.05737 | 20.19725 | 2219 ft | 103 kts | 5° |
| 2026-05-01 08:54 | 50.06450 | 20.19884 | 2207 ft | 103 kts | 3° |
| 2026-05-01 08:54 | 50.07161 | 20.20052 | 2247 ft | 105 kts | 4° |
| 2026-05-01 08:54 | 50.07892 | 20.20258 | 2247 ft | 107 kts | 7° |
| 2026-05-01 08:54 | 50.08621 | 20.20478 | 2222 ft | 110 kts | 7° |
| 2026-05-01 08:55 | 50.09370 | 20.20738 | 2174 ft | 112 kts | 7° |
| 2026-05-01 08:55 | 50.10104 | 20.21005 | 2169 ft | 103 kts | 8° |
| 2026-05-01 08:55 | 50.10781 | 20.21148 | 2128 ft | 93 kts | 347° |
| 2026-05-01 08:55 | 50.11245 | 20.20634 | 2046 ft | 83 kts | 285° |
| 2026-05-01 08:56 | 50.11007 | 20.19878 | 1896 ft | 91 kts | 202° |
| 2026-05-01 08:56 | 50.10413 | 20.20322 | 1640 ft | 108 kts | 152° |
| 2026-05-01 08:56 | 50.10048 | 20.21198 | 1573 ft | 105 kts | 79° |
| 2026-05-01 08:56 | 50.10112 | 20.22356 | 1516 ft | 103 kts | 89° |
| 2026-05-01 08:57 | 50.10112 | 20.23437 | 1530 ft | 101 kts | 109° |
| 2026-05-01 08:57 | 50.09669 | 20.24191 | 1560 ft | 92 kts | 160° |
| 2026-05-01 08:57 | 50.09061 | 20.24448 | 1590 ft | 87 kts | 194° |
| 2026-05-01 08:57 | 50.08588 | 20.23925 | 1491 ft | 89 kts | 240° |
| 2026-05-01 08:58 | 50.08481 | 20.23171 | 1292 ft | 67 kts | 292° |
| 2026-05-01 08:58 | 50.08520 | 20.22427 | 995 ft | 67 kts | 272° |
| 2026-05-01 08:58 | 50.08566 | 20.21751 | 845 ft | 59 kts | 272° |
| 2026-05-01 08:58 | 50.08595 | 20.21115 | 701 ft | 62 kts | 271° |
| 2026-05-01 08:59 | 50.08617 | 20.20562 | 664 ft | 38 kts | 276° |
| 2026-05-01 08:59 | 50.08637 | 20.20241 | 665 ft | 23 kts | 271° |
| 2026-05-01 08:59 | 50.08590 | 20.20059 | 663 ft | 14 kts | 239° |
| 2026-05-01 08:59 | 50.08550 | 20.19957 | 663 ft | 11 kts | 238° |
| 2026-05-01 09:00 | 50.08501 | 20.19835 | 663 ft | 15 kts | 238° |
| 2026-05-01 09:00 | 50.08431 | 20.19743 | 663 ft | 10 kts | 192° |
| 2026-05-01 09:00 | 50.08418 | 20.19743 | 663 ft | 0 kts | 168° |
| 2026-05-01 09:03 | 50.08423 | 20.19742 | 663 ft | 2 kts | 187° |
| 2026-05-01 09:03 | 50.08429 | 20.19751 | 663 ft | 0 kts | 273° |
| 2026-05-01 09:04 | 50.08429 | 20.19745 | 663 ft | 3 kts | 286° |
| 2026-05-01 09:04 | 50.08470 | 20.19761 | 663 ft | 10 kts | 41° |
| 2026-05-01 09:05 | 50.08515 | 20.19859 | 663 ft | 12 kts | 61° |
| 2026-05-01 09:05 | 50.08558 | 20.19967 | 663 ft | 12 kts | 56° |
| 2026-05-01 09:05 | 50.08593 | 20.20082 | 663 ft | 12 kts | 85° |
| 2026-05-01 09:05 | 50.08589 | 20.20211 | 664 ft | 12 kts | 95° |
| 2026-05-01 09:06 | 50.08585 | 20.20339 | 664 ft | 12 kts | 94° |
| 2026-05-01 09:06 | 50.08579 | 20.20473 | 657 ft | 13 kts | 95° |
| 2026-05-01 09:06 | 50.08574 | 20.20566 | 657 ft | 13 kts | 95° |
| 2026-05-01 09:06 | 50.08565 | 20.20706 | 657 ft | 13 kts | 95° |
| 2026-05-01 09:07 | 50.08557 | 20.20848 | 657 ft | 13 kts | 96° |
| 2026-05-01 09:07 | 50.08561 | 20.20962 | 656 ft | 5 kts | 11° |
| 2026-05-01 09:07 | 50.08601 | 20.20953 | 656 ft | 6 kts | 298° |
| 2026-05-01 09:07 | 50.08609 | 20.20828 | 658 ft | 29 kts | 276° |
| 2026-05-01 09:08 | 50.08639 | 20.20292 | 672 ft | 66 kts | 271° |
| 2026-05-01 09:08 | 50.08679 | 20.19546 | 880 ft | 69 kts | 271° |
| 2026-05-01 09:08 | 50.08719 | 20.18763 | 1032 ft | 76 kts | 272° |
| 2026-05-01 09:08 | 50.08541 | 20.18047 | 1184 ft | 78 kts | 215° |
| 2026-05-01 09:09 | 50.07966 | 20.17825 | 1374 ft | 89 kts | 193° |
| 2026-05-01 09:09 | 50.07339 | 20.17671 | 1611 ft | 92 kts | 194° |
| 2026-05-01 09:09 | 50.06478 | 20.17528 | 1932 ft | 93 kts | 195° |
| 2026-05-01 09:09 | 50.06058 | 20.17398 | 1987 ft | 93 kts | 199° |
| 2026-05-01 09:10 | 50.05410 | 20.17107 | 2011 ft | 102 kts | 207° |
| 2026-05-01 09:10 | 50.04750 | 20.16641 | 2008 ft | 106 kts | 212° |
| 2026-05-01 09:10 | 50.04078 | 20.16145 | 1985 ft | 109 kts | 211° |
| 2026-05-01 09:10 | 50.03424 | 20.15604 | 2005 ft | 106 kts | 213° |
| 2026-05-01 09:11 | 50.02848 | 20.14908 | 1986 ft | 106 kts | 237° |
| 2026-05-01 09:11 | 50.02628 | 20.13821 | 1925 ft | 106 kts | 263° |
| 2026-05-01 09:11 | 50.02541 | 20.12691 | 1898 ft | 106 kts | 265° |
| 2026-05-01 09:11 | 50.02426 | 20.11557 | 1910 ft | 105 kts | 259° |
| 2026-05-01 09:12 | 50.02272 | 20.10452 | 1925 ft | 105 kts | 259° |
| 2026-05-01 09:12 | 50.02110 | 20.09347 | 1945 ft | 105 kts | 257° |
| 2026-05-01 09:12 | 50.01886 | 20.08267 | 1942 ft | 105 kts | 253° |
| 2026-05-01 09:12 | 50.01639 | 20.07178 | 1879 ft | 107 kts | 253° |
| 2026-05-01 09:13 | 50.01427 | 20.06116 | 1920 ft | 99 kts | 255° |
| 2026-05-01 09:13 | 50.01229 | 20.05089 | 1926 ft | 100 kts | 255° |
| 2026-05-01 09:13 | 50.01048 | 20.04047 | 1988 ft | 101 kts | 257° |
| 2026-05-01 09:13 | 50.00867 | 20.02977 | 1948 ft | 104 kts | 257° |
| 2026-05-01 09:14 | 50.00705 | 20.01885 | 1953 ft | 103 kts | 261° |
| 2026-05-01 09:14 | 50.00607 | 20.00770 | 1966 ft | 104 kts | 264° |
| 2026-05-01 09:14 | 50.00555 | 19.99665 | 1996 ft | 100 kts | 267° |
| 2026-05-01 09:14 | 50.00473 | 19.98581 | 1974 ft | 103 kts | 262° |
| 2026-05-01 09:15 | 50.00384 | 19.97493 | 1963 ft | 103 kts | 263° |
| 2026-05-01 09:15 | 50.00286 | 19.96394 | 1932 ft | 105 kts | 257° |
| 2026-05-01 09:15 | 50.00091 | 19.95307 | 1974 ft | 102 kts | 252° |
| 2026-05-01 09:15 | 49.99860 | 19.94281 | 1967 ft | 99 kts | 253° |
| 2026-05-01 09:16 | 49.99641 | 19.93264 | 1981 ft | 101 kts | 253° |
| 2026-05-01 09:16 | 49.99434 | 19.92220 | 1986 ft | 102 kts | 255° |
| 2026-05-01 09:16 | 49.99236 | 19.91173 | 1990 ft | 100 kts | 253° |
| 2026-05-01 09:17 | 49.98878 | 19.89119 | 2013 ft | 98 kts | 263° |
| 2026-05-01 09:17 | 49.98744 | 19.88095 | 1949 ft | 95 kts | 261° |
| 2026-05-01 09:17 | 49.98425 | 19.86095 | 1939 ft | 97 kts | 256° |
| 2026-05-01 09:18 | 49.98240 | 19.85055 | 1920 ft | 101 kts | 258° |
| 2026-05-01 09:18 | 49.98409 | 19.83079 | 1942 ft | 103 kts | 313° |
| 2026-05-01 09:19 | 49.99571 | 19.81748 | 1943 ft | 106 kts | 330° |
| 2026-05-01 09:19 | 50.00262 | 19.81358 | 1973 ft | 107 kts | 343° |
| 2026-05-01 09:19 | 50.00990 | 19.81128 | 1973 ft | 106 kts | 345° |
| 2026-05-01 09:20 | 50.02376 | 19.80502 | 1943 ft | 99 kts | 339° |
| 2026-05-01 09:20 | 50.03688 | 19.80188 | 1939 ft | 96 kts | 353° |
| 2026-05-01 09:21 | 50.05051 | 19.80074 | 1909 ft | 103 kts | 13° |
| 2026-05-01 09:21 | 50.05698 | 19.80662 | 1813 ft | 112 kts | 37° |
| 2026-05-01 09:21 | 50.06138 | 19.82951 | 1869 ft | 108 kts | 79° |
| 2026-05-01 09:22 | 50.06927 | 19.84331 | 1745 ft | 87 kts | 349° |
| 2026-05-01 09:22 | 50.08082 | 19.84148 | 1677 ft | 82 kts | 346° |
| 2026-05-01 09:23 | 50.08406 | 19.83607 | 1381 ft | 74 kts | 270° |
| 2026-05-01 09:23 | 50.08273 | 19.82036 | 1077 ft | 70 kts | 252° |
| 2026-05-01 09:24 | 50.08074 | 19.80623 | 918 ft | 68 kts | 255° |
| 2026-05-01 09:24 | 50.07975 | 19.79915 | 807 ft | 65 kts | 253° |
| 2026-05-01 09:24 | 50.07784 | 19.78569 | 986 ft | 69 kts | 254° |
| 2026-05-01 09:25 | 50.07581 | 19.77031 | 1446 ft | 80 kts | 259° |
| 2026-05-01 09:25 | 50.06826 | 19.76287 | 1943 ft | 87 kts | 166° |
| 2026-05-01 09:26 | 50.06206 | 19.76635 | 1939 ft | 98 kts | 168° |
| 2026-05-01 09:26 | 50.05472 | 19.78169 | 1941 ft | 103 kts | 77° |
| 2026-05-01 09:26 | 50.05601 | 19.79269 | 1936 ft | 106 kts | 79° |
| 2026-05-01 09:27 | 50.05897 | 19.81547 | 1938 ft | 107 kts | 77° |
| 2026-05-01 09:27 | 50.06039 | 19.82668 | 1932 ft | 104 kts | 78° |
| 2026-05-01 09:27 | 50.06173 | 19.83762 | 1970 ft | 99 kts | 72° |
| 2026-05-01 09:28 | 50.06617 | 19.84448 | 1845 ft | 89 kts | 7° |
| 2026-05-01 09:28 | 50.07225 | 19.84397 | 1790 ft | 84 kts | 347° |
| 2026-05-01 09:28 | 50.07811 | 19.84291 | 1741 ft | 85 kts | 349° |
| 2026-05-01 09:28 | 50.08304 | 19.83939 | 1558 ft | 77 kts | 292° |
| 2026-05-01 09:29 | 50.08315 | 19.82384 | 1171 ft | 73 kts | 255° |
| 2026-05-01 09:29 | 50.08216 | 19.81649 | 1076 ft | 65 kts | 256° |
| 2026-05-01 09:30 | 50.08029 | 19.80275 | 882 ft | 62 kts | 254° |
| 2026-05-01 09:30 | 50.07935 | 19.79626 | 800 ft | 61 kts | 253° |
| 2026-05-01 09:30 | 50.07755 | 19.78316 | 966 ft | 70 kts | 258° |
| 2026-05-01 09:31 | 50.07682 | 19.77555 | 1208 ft | 74 kts | 257° |
| 2026-05-01 09:31 | 50.07565 | 19.76720 | 1431 ft | 81 kts | 256° |
| 2026-05-01 09:31 | 50.06634 | 19.76368 | 1893 ft | 92 kts | 167° |
| 2026-05-01 09:32 | 50.06014 | 19.76744 | 1909 ft | 97 kts | 164° |
| 2026-05-01 09:32 | 50.05748 | 19.78705 | 1951 ft | 105 kts | 77° |
| 2026-05-01 09:32 | 50.05907 | 19.79851 | 1949 ft | 111 kts | 76° |
| 2026-05-01 09:33 | 50.06051 | 19.81047 | 1869 ft | 113 kts | 78° |
| 2026-05-01 09:33 | 50.06209 | 19.82204 | 1926 ft | 106 kts | 77° |
| 2026-05-01 09:33 | 50.06350 | 19.84410 | 1967 ft | 103 kts | 116° |
| 2026-05-01 09:34 | 50.05840 | 19.85098 | 1913 ft | 98 kts | 172° |
| 2026-05-01 09:34 | 50.05200 | 19.84897 | 1844 ft | 94 kts | 222° |
| 2026-05-01 09:34 | 50.05080 | 19.83124 | 1880 ft | 91 kts | 287° |
| 2026-05-01 09:35 | 50.05273 | 19.82214 | 1909 ft | 87 kts | 287° |
| 2026-05-01 09:35 | 50.05197 | 19.80272 | 1801 ft | 91 kts | 263° |
| 2026-05-01 09:35 | 50.05072 | 19.79349 | 1858 ft | 86 kts | 258° |
| 2026-05-01 09:36 | 50.04937 | 19.78460 | 1871 ft | 83 kts | 260° |
| 2026-05-01 09:36 | 50.04795 | 19.77600 | 1905 ft | 81 kts | 260° |
| 2026-05-01 09:36 | 50.04589 | 19.76788 | 1938 ft | 82 kts | 229° |
| 2026-05-01 09:36 | 50.04015 | 19.76631 | 1946 ft | 94 kts | 165° |
| 2026-05-01 09:37 | 50.03570 | 19.77413 | 1893 ft | 102 kts | 103° |
| 2026-05-01 09:37 | 50.03823 | 19.79687 | 1856 ft | 107 kts | 76° |
| 2026-05-01 09:37 | 50.04348 | 19.80326 | 1859 ft | 101 kts | 0° |
| 2026-05-01 09:38 | 50.05321 | 19.79294 | 1888 ft | 91 kts | 316° |
| 2026-05-01 09:38 | 50.05930 | 19.79301 | 1858 ft | 107 kts | 40° |
| 2026-05-01 09:38 | 50.06109 | 19.80429 | 1832 ft | 110 kts | 89° |
| 2026-05-01 09:39 | 50.06352 | 19.82674 | 1944 ft | 101 kts | 79° |
| 2026-05-01 09:39 | 50.06530 | 19.83708 | 1946 ft | 98 kts | 49° |
| 2026-05-01 09:39 | 50.07078 | 19.84178 | 1825 ft | 89 kts | 350° |
| 2026-05-01 09:40 | 50.07695 | 19.84069 | 1798 ft | 87 kts | 350° |
| 2026-05-01 09:40 | 50.08518 | 19.83430 | 1504 ft | 70 kts | 249° |
| 2026-05-01 09:40 | 50.08352 | 19.82662 | 1261 ft | 77 kts | 255° |
| 2026-05-01 09:41 | 50.08250 | 19.81834 | 1064 ft | 74 kts | 261° |
| 2026-05-01 09:41 | 50.08054 | 19.80448 | 891 ft | 64 kts | 251° |
| 2026-05-01 09:41 | 50.07955 | 19.79761 | 811 ft | 67 kts | 252° |
| 2026-05-01 09:42 | 50.07871 | 19.79104 | 786 ft | 49 kts | 256° |
| 2026-05-01 09:42 | 50.07788 | 19.78534 | 860 ft | 61 kts | 250° |
| 2026-05-01 09:42 | 50.07634 | 19.77142 | 1238 ft | 71 kts | 257° |
| 2026-05-01 09:43 | 50.07677 | 19.75685 | 1782 ft | 77 kts | 328° |
| 2026-05-01 09:43 | 50.08222 | 19.75534 | 1921 ft | 86 kts | 350° |
| 2026-05-01 09:43 | 50.08832 | 19.75442 | 1956 ft | 86 kts | 346° |
| 2026-05-01 09:44 | 50.09493 | 19.76913 | 1886 ft | 109 kts | 80° |
| 2026-05-01 09:44 | 50.09611 | 19.78082 | 1882 ft | 107 kts | 77° |
| 2026-05-01 09:44 | 50.09746 | 19.79230 | 1900 ft | 107 kts | 78° |
| 2026-05-01 09:45 | 50.09877 | 19.80363 | 1931 ft | 105 kts | 78° |
| 2026-05-01 09:45 | 50.10158 | 19.82564 | 1918 ft | 99 kts | 79° |
| 2026-05-01 09:45 | 50.10032 | 19.83531 | 1760 ft | 94 kts | 136° |
| 2026-05-01 09:46 | 50.09504 | 19.83907 | 1615 ft | 79 kts | 173° |
| 2026-05-01 09:46 | 50.08973 | 19.84052 | 1448 ft | 77 kts | 178° |
| 2026-05-01 09:46 | 50.08513 | 19.83856 | 1354 ft | 68 kts | 226° |
| 2026-05-01 09:46 | 50.08391 | 19.83144 | 1224 ft | 74 kts | 258° |
| 2026-05-01 09:47 | 50.08308 | 19.82318 | 1186 ft | 78 kts | 253° |
| 2026-05-01 09:47 | 50.08180 | 19.81550 | 1031 ft | 73 kts | 258° |
| 2026-05-01 09:47 | 50.08104 | 19.80775 | 940 ft | 70 kts | 251° |
| 2026-05-01 09:47 | 50.07996 | 19.80053 | 839 ft | 68 kts | 251° |
| 2026-05-01 09:48 | 50.07899 | 19.79374 | 795 ft | 59 kts | 261° |
| 2026-05-01 09:48 | 50.07834 | 19.78794 | 836 ft | 60 kts | 252° |
| 2026-05-01 09:48 | 50.07749 | 19.78130 | 1022 ft | 64 kts | 255° |
| 2026-05-01 09:48 | 50.07654 | 19.77411 | 1186 ft | 72 kts | 257° |
| 2026-05-01 09:49 | 50.07545 | 19.76608 | 1433 ft | 78 kts | 266° |
| 2026-05-01 09:49 | 50.07884 | 19.76057 | 1818 ft | 78 kts | 348° |
| 2026-05-01 09:49 | 50.08447 | 19.75935 | 1946 ft | 84 kts | 347° |
| 2026-05-01 09:49 | 50.09042 | 19.75912 | 1965 ft | 94 kts | 13° |
| 2026-05-01 09:50 | 50.09510 | 19.76639 | 1884 ft | 109 kts | 72° |
| 2026-05-01 09:50 | 50.09652 | 19.77766 | 1866 ft | 106 kts | 82° |
| 2026-05-01 09:50 | 50.09740 | 19.78885 | 1876 ft | 104 kts | 81° |
| 2026-05-01 09:50 | 50.09846 | 19.80022 | 1860 ft | 109 kts | 81° |
| 2026-05-01 09:51 | 50.09952 | 19.81175 | 1884 ft | 105 kts | 83° |
| 2026-05-01 09:51 | 50.10065 | 19.82247 | 1927 ft | 96 kts | 83° |
| 2026-05-01 09:51 | 50.09905 | 19.83151 | 1791 ft | 92 kts | 156° |
| 2026-05-01 09:51 | 50.09322 | 19.83371 | 1622 ft | 84 kts | 171° |
| 2026-05-01 09:52 | 50.08758 | 19.83579 | 1463 ft | 80 kts | 191° |
| 2026-05-01 09:52 | 50.08430 | 19.83098 | 1295 ft | 60 kts | 241° |
| 2026-05-01 09:52 | 50.08328 | 19.82442 | 1171 ft | 65 kts | 250° |
| 2026-05-01 09:52 | 50.08232 | 19.81764 | 1082 ft | 58 kts | 256° |
| 2026-05-01 09:53 | 50.08145 | 19.81152 | 976 ft | 61 kts | 253° |
| 2026-05-01 09:53 | 50.08055 | 19.80468 | 894 ft | 67 kts | 253° |
| 2026-05-01 09:53 | 50.07951 | 19.79750 | 795 ft | 65 kts | 252° |
| 2026-05-01 09:53 | 50.07883 | 19.79230 | 785 ft | 33 kts | 258° |
| 2026-05-01 09:54 | 50.07807 | 19.79079 | 785 ft | 14 kts | 188° |
| 2026-05-01 09:54 | 50.07723 | 19.79099 | 785 ft | 11 kts | 165° |
| 2026-05-01 09:54 | 50.07680 | 19.79114 | 785 ft | 9 kts | 166° |
| 2026-05-01 09:54 | 50.07629 | 19.79138 | 784 ft | 8 kts | 144° |
| 2026-05-01 09:55 | 50.07624 | 19.79239 | 784 ft | 12 kts | 78° |
| 2026-05-01 09:55 | 50.07644 | 19.79375 | 784 ft | 14 kts | 75° |
| 2026-05-01 09:55 | 50.07662 | 19.79520 | 784 ft | 13 kts | 67° |
| 2026-05-01 09:55 | 50.07682 | 19.79648 | 784 ft | 12 kts | 78° |
| 2026-05-01 09:56 | 50.07698 | 19.79766 | 784 ft | 11 kts | 77° |
| 2026-05-01 09:56 | 50.07689 | 19.79870 | 784 ft | 11 kts | 152° |
| 2026-05-01 09:56 | 50.07625 | 19.79897 | 784 ft | 8 kts | 156° |
| 2026-05-01 09:56 | 50.07612 | 19.79972 | 784 ft | 8 kts | 77° |
| 2026-05-01 09:57 | 50.07622 | 19.80050 | 784 ft | 7 kts | 77° |
| 2026-05-01 09:57 | 50.07634 | 19.80137 | 784 ft | 10 kts | 77° |
| 2026-05-01 09:57 | 50.07675 | 19.80171 | 784 ft | 8 kts | 348° |
| 2026-05-01 09:57 | 50.07703 | 19.80161 | 784 ft | 0 kts | 348° |